Home > Products > Valid Products > MTR

000
SAUS41 KBOX 111855
MTRMQE
METAR KMQE 111854Z AUTO 28020G27KT M06/M14 A2966 RMK AO1 PK WND
29030/1839 SLP064 T10561144





000
SAUS41 KBOX 111755
MTRMQE
METAR KMQE 111754Z AUTO 28012G23KT M05/M13 A2966 RMK AO1 PK WND
26027/1738 SLP062 T10501128 11044 21067 58007





000
SAUS41 KBOX 111755
MTRMQE
METAR KMQE 111754Z AUTO 28012G23KT M05/M13 A2966 RMK AO1 PK WND
26027/1738 SLP062 T10501128 11044 21067 58007





000
SAUS41 KBOX 111655
MTRMQE
METAR KMQE 111654Z AUTO 28015G21KT M06/M09 A2967 RMK AO1 SLP066
T10561094





000
SAUS41 KBOX 111655
MTRMQE
METAR KMQE 111654Z AUTO 28015G21KT M06/M09 A2967 RMK AO1 SLP066
T10561094





000
SAUS41 KBOX 111555
MTRMQE
METAR KMQE 111554Z AUTO 29010KT M05/M11 A2968 RMK AO1 SLP068
T10501106





000
SAUS41 KBOX 111555
MTRMQE
METAR KMQE 111554Z AUTO 29010KT M05/M11 A2968 RMK AO1 SLP068
T10501106





000
SAUS41 KBOX 111455
MTRMQE
METAR KMQE 111454Z AUTO 27010KT M06/M09 A2968 RMK AO1 SLP069
T10611089 53012





000
SAUS41 KBOX 111455
MTRMQE
METAR KMQE 111454Z AUTO 27010KT M06/M09 A2968 RMK AO1 SLP069
T10611089 53012





000
SAUS41 KBOX 111355
MTRMQE
METAR KMQE 111354Z AUTO 29014G22KT M06/M11 A2967 RMK AO1 SLP066
T10561106





000
SAUS41 KBOX 111355
MTRMQE
METAR KMQE 111354Z AUTO 29014G22KT M06/M11 A2967 RMK AO1 SLP066
T10561106





000
SAUS41 KBOX 111255
MTRMQE
METAR KMQE 111254Z AUTO 29011KT M06/M10 A2965 RMK AO1 SLP058
T10611100





000
SAUS41 KBOX 111255
MTRMQE
METAR KMQE 111254Z AUTO 29011KT M06/M10 A2965 RMK AO1 SLP058
T10611100





000
SAUS41 KBOX 111155
MTRMQE
METAR KMQE 111154Z AUTO 26007KT M06/M10 A2964 RMK AO1 SLP056 70001
T10611100 11044 21067 53013





000
SAUS41 KBOX 111155
MTRMQE
METAR KMQE 111154Z AUTO 26007KT M06/M10 A2964 RMK AO1 SLP056 70001
T10611100 11044 21067 53013





000
SAUS41 KBOX 111055
MTRMQE
METAR KMQE 111054Z AUTO 29008KT M07/M10 A2963 RMK AO1 SLP050
T10671100





000
SAUS41 KBOX 111055
MTRMQE
METAR KMQE 111054Z AUTO 29008KT M07/M10 A2963 RMK AO1 SLP050
T10671100





000
SAUS41 KBOX 110955
MTRMQE
METAR KMQE 110954Z AUTO 30010KT M07/M09 A2962 RMK AO1 SLP047
T10671094





000
SAUS41 KBOX 110855
MTRMQE
METAR KMQE 110854Z AUTO 27010KT M06/M09 A2960 RMK AO1 SLP043
T10561089 50001





000
SAUS41 KBOX 110855
MTRMQE
METAR KMQE 110854Z AUTO 27010KT M06/M09 A2960 RMK AO1 SLP043
T10561089 50001





000
SAUS41 KBOX 110755
MTRMQE
METAR KMQE 110754Z AUTO 28010KT M06/M08 A2961 RMK AO1 SLP043
T10561083





000
SAUS41 KBOX 110755
MTRMQE
METAR KMQE 110754Z AUTO 28010KT M06/M08 A2961 RMK AO1 SLP043
T10561083





000
SAUS41 KBOX 110655
MTRMQE
METAR KMQE 110654Z AUTO 27010KT M05/M08 A2961 RMK AO1 SLP045
T10501078





000
SAUS41 KBOX 110655
MTRMQE
METAR KMQE 110654Z AUTO 27010KT M05/M08 A2961 RMK AO1 SLP045
T10501078





000
SAUS41 KBOX 110555
MTRMQE
METAR KMQE 110554Z AUTO 28012KT M04/M07 A2960 RMK AO1 SLP042
T10441067 11011 21044 50003





000
SAUS41 KBOX 110555
MTRMQE
METAR KMQE 110554Z AUTO 28012KT M04/M07 A2960 RMK AO1 SLP042
T10441067 11011 21044 50003





000
SAUS41 KBOX 110456
MTRMQE
METAR KMQE 110454Z AUTO 27013KT M04/M06 A2961 RMK AO1 SLP046
T10391061 400001061





000
SAUS41 KBOX 110456
MTRMQE
METAR KMQE 110454Z AUTO 27013KT M04/M06 A2961 RMK AO1 SLP046
T10391061 400001061





000
SAUS41 KBOX 110355
MTRMQE
METAR KMQE 110354Z AUTO 26011KT M03/M05 A2961 RMK AO1 SLP043
T10331050





000
SAUS41 KBOX 110355
MTRMQE
METAR KMQE 110354Z AUTO 26011KT M03/M05 A2961 RMK AO1 SLP043
T10331050





000
SAUS41 KBOX 110255
MTRMQE
METAR KMQE 110254Z AUTO 27011KT M03/M04 A2959 RMK AO1 SLP039
T10281044 51005





000
SAUS41 KBOX 110255
MTRMQE
METAR KMQE 110254Z AUTO 27011KT M03/M04 A2959 RMK AO1 SLP039
T10281044 51005





000
SAUS41 KBOX 110155
MTRMQE
METAR KMQE 110154Z AUTO 27010KT M02/M04 A2959 RMK AO1 SLP039
T10221039





000
SAUS41 KBOX 110155
MTRMQE
METAR KMQE 110154Z AUTO 27010KT M02/M04 A2959 RMK AO1 SLP039
T10221039





000
SAUS41 KBOX 110055
MTRMQE
METAR KMQE 110054Z AUTO 26011KT M01/M03 A2959 RMK AO1 SLP036
T10111033





000
SAUS41 KBOX 110055
MTRMQE
METAR KMQE 110054Z AUTO 26011KT M01/M03 A2959 RMK AO1 SLP036
T10111033





000
SAUS41 KBOX 102355
MTRMQE
METAR KMQE 102354Z AUTO 25008KT M01/M03 A2958 RMK AO1 SLP034
T10111028 10000 21011 51019





000
SAUS41 KBOX 102355
MTRMQE
METAR KMQE 102354Z AUTO 25008KT M01/M03 A2958 RMK AO1 SLP034
T10111028 10000 21011 51019





000
SAUS41 KBOX 102255
MTRMQE
METAR KMQE 102254Z AUTO 23006KT M01/M02 A2957 RMK AO1 SLP030
T10061022





000
SAUS41 KBOX 102255
MTRMQE
METAR KMQE 102254Z AUTO 23006KT M01/M02 A2957 RMK AO1 SLP030
T10061022





000
SAUS41 KBOX 102155
MTRMQE
METAR KMQE 102154Z AUTO 22007KT M01/M02 A2954 RMK AO1 SLP022
T10061017





000
SAUS41 KBOX 102055
MTRMQE
METAR KMQE 102054Z AUTO 23005KT 00/M02 A2952 RMK AO1 SLP015
T00001017 53003





000
SAUS41 KBOX 101955
MTRMQE
METAR KMQE 101954Z AUTO 22005KT 00/M02 A2951 RMK AO1 SLP010
T00001022





000
SAUS41 KBOX 101855
MTRMQE
METAR KMQE 101854Z AUTO 23008KT 00/M02 A2951 RMK AO1 SLP009
T00001022





000
SAUS41 KBOX 101855
MTRMQE
METAR KMQE 101854Z AUTO 23008KT 00/M02 A2951 RMK AO1 SLP009
T00001022





000
SAUS41 KBOX 101755
MTRMQE
METAR KMQE 101754Z AUTO VRB04KT M01/M02 A2951 RMK AO1 SLP012 P0001
60001 T10111017 11006 21050 58018





000
SAUS41 KBOX 101755
MTRMQE
METAR KMQE 101754Z AUTO VRB04KT M01/M02 A2951 RMK AO1 SLP012 P0001
60001 T10111017 11006 21050 58018





000
SAUS41 KBOX 101655
MTRMQE
METAR KMQE 101654Z AUTO VRB04KT M01/M02 A2953 RMK AO1 SLP018
T10061022





000
SAUS41 KBOX 101655
MTRMQE
METAR KMQE 101654Z AUTO VRB04KT M01/M02 A2953 RMK AO1 SLP018
T10061022





000
SAUS41 KBOX 101555
MTRMQE
METAR KMQE 101554Z AUTO 20006KT M02/M03 A2956 RMK AO1 SLP028
T10171028





000
SAUS41 KBOX 101455
MTRMQE
METAR KMQE 101454Z AUTO 16005KT M03/M04 A2957 RMK AO1 SLP032
T10281044 58001





000
SAUS41 KBOX 101455
MTRMQE
METAR KMQE 101454Z AUTO 16005KT M03/M04 A2957 RMK AO1 SLP032
T10281044 58001





000
SAUS41 KBOX 101355
MTRMQE
METAR KMQE 101354Z AUTO 16006KT M04/M05 A2957 RMK AO1 SLP033
T10391050





000
SAUS41 KBOX 101355
MTRMQE
METAR KMQE 101354Z AUTO 16006KT M04/M05 A2957 RMK AO1 SLP033
T10391050





000
SAUS41 KBOX 101255
MTRMQE
METAR KMQE 101254Z AUTO 16008KT M05/M07 A2958 RMK AO1 SLP034
T10501067





000
SAUS41 KBOX 101155
MTRMQE
METAR KMQE 101154Z AUTO 17009KT M04/M08 A2957 RMK AO1 SLP033
T10441083 11044 21056 53007





000
SAUS41 KBOX 101155
MTRMQE
METAR KMQE 101154Z AUTO 17009KT M04/M08 A2957 RMK AO1 SLP033
T10441083 11044 21056 53007





000
SAUS41 KBOX 101055
MTRMQE
METAR KMQE 101054Z AUTO 17009KT M05/M08 A2956 RMK AO1 SLP030
T10501078





000
SAUS41 KBOX 101055
MTRMQE
METAR KMQE 101054Z AUTO 17009KT M05/M08 A2956 RMK AO1 SLP030
T10501078





000
SAUS41 KBOX 100955
MTRMQE
METAR KMQE 100954Z AUTO 17008KT M06/M08 A2956 RMK AO1 SLP029
T10561083





000
SAUS41 KBOX 100955
MTRMQE
METAR KMQE 100954Z AUTO 17008KT M06/M08 A2956 RMK AO1 SLP029
T10561083





000
SAUS41 KBOX 100855
MTRMQE
METAR KMQE 100854Z AUTO 16006KT M06/M09 A2955 RMK AO1 SLP026
T10561089 58001





000
SAUS41 KBOX 100755
MTRMQE
METAR KMQE 100754Z AUTO 18005KT M06/M09 A2956 RMK AO1 SLP028
T10561089





000
SAUS41 KBOX 100655
MTRMQE
METAR KMQE 100654Z AUTO 17005KT M05/M09 A2956 RMK AO1 SLP028
T10501089





000
SAUS41 KBOX 100655
MTRMQE
METAR KMQE 100654Z AUTO 17005KT M05/M09 A2956 RMK AO1 SLP028
T10501089





000
SAUS41 KBOX 100555
MTRMQE
METAR KMQE 100554Z AUTO 24003KT M06/M09 A2956 RMK AO1 SLP027
T10561094 11039 21061 56009





000
SAUS41 KBOX 100555
MTRMQE
METAR KMQE 100554Z AUTO 24003KT M06/M09 A2956 RMK AO1 SLP027
T10561094 11039 21061 56009





000
SAUS41 KBOX 100455
MTRMQE
METAR KMQE 100454Z AUTO 22005KT M05/M09 A2957 RMK AO1 SLP031
T10501089 410331083





000
SAUS41 KBOX 100455
MTRMQE
METAR KMQE 100454Z AUTO 22005KT M05/M09 A2957 RMK AO1 SLP031
T10501089 410331083





000
SAUS41 KBOX 100355
MTRMQE
METAR KMQE 100354Z AUTO 23004KT M05/M09 A2957 RMK AO1 SLP031
T10501089





000
SAUS41 KBOX 100255
MTRMQE
METAR KMQE 100254Z AUTO 21005KT M05/M08 A2958 RMK AO1 SLP038
T10501083 53002





000
SAUS41 KBOX 100255
MTRMQE
METAR KMQE 100254Z AUTO 21005KT M05/M08 A2958 RMK AO1 SLP038
T10501083 53002





000
SAUS41 KBOX 100155
MTRMQE
METAR KMQE 100154Z AUTO 00000KT M04/M09 A2958 RMK AO1 SLP036
T10441089





000
SAUS41 KBOX 100155
MTRMQE
METAR KMQE 100154Z AUTO 00000KT M04/M09 A2958 RMK AO1 SLP036
T10441089





000
SAUS41 KBOX 100055
MTRMQE
METAR KMQE 100054Z AUTO 31004KT M05/M08 A2957 RMK AO1 SLP032
T10501083





000
SAUS41 KBOX 100055
MTRMQE
METAR KMQE 100054Z AUTO 31004KT M05/M08 A2957 RMK AO1 SLP032
T10501083





000
SAUS41 KBOX 092355
MTRMQE
METAR KMQE 092354Z AUTO 28005KT M04/M07 A2958 RMK AO1 SLP036
T10441072 11033 21044 53009





000
SAUS41 KBOX 092355
MTRMQE
METAR KMQE 092354Z AUTO 28005KT M04/M07 A2958 RMK AO1 SLP036
T10441072 11033 21044 53009





000
SAUS41 KBOX 092255
MTRMQE
METAR KMQE 092254Z AUTO 00000KT M04/M07 A2957 RMK AO1 SLP035
T10391072





000
SAUS41 KBOX 092255
MTRMQE
METAR KMQE 092254Z AUTO 00000KT M04/M07 A2957 RMK AO1 SLP035
T10391072





000
SAUS41 KBOX 092155
MTRMQE
METAR KMQE 092154Z AUTO 00000KT M04/M07 A2955 RMK AO1 SLP026
T10391072





000
SAUS41 KBOX 092055
MTRMQE
METAR KMQE 092054Z AUTO 00000KT M03/M07 A2955 RMK AO1 SLP027
T10331072 55004





000
SAUS41 KBOX 091955
MTRMQE
METAR KMQE 091954Z AUTO 32004KT M04/M07 A2954 RMK AO1 SLP023
T10391072





000
SAUS41 KBOX 091855
MTRMQE
METAR KMQE 091854Z AUTO VRB04KT M04/M07 A2955 RMK AO1 SLP025
T10391072





000
SAUS41 KBOX 091855
MTRMQE
METAR KMQE 091854Z AUTO VRB04KT M04/M07 A2955 RMK AO1 SLP025
T10391072





000
SAUS41 KBOX 091755
MTRMQE
METAR KMQE 091754Z AUTO 03007KT M04/M07 A2956 RMK AO1 SLP030
T10441067 11039 21083 56030





000
SAUS41 KBOX 091655
MTRMQE
METAR KMQE 091654Z AUTO VRB05KT M05/M08 A2959 RMK AO1 SLP041
T10501078





000
SAUS41 KBOX 091655
MTRMQE
METAR KMQE 091654Z AUTO VRB05KT M05/M08 A2959 RMK AO1 SLP041
T10501078





000
SAUS41 KBOX 091555
MTRMQE
METAR KMQE 091554Z AUTO 35006KT M06/M08 A2962 RMK AO1 SLP049
T10561083





000
SAUS41 KBOX 091455
MTRMQE
METAR KMQE 091454Z AUTO 34005KT M06/M09 A2965 RMK AO1 SLP062
T10611089 50012





000
SAUS41 KBOX 091355
MTRMQE
METAR KMQE 091354Z AUTO 33008KT M07/M09 A2966 RMK AO1 SLP064
T10721094





000
SAUS41 KBOX 091255
MTRMQE
METAR KMQE 091254Z AUTO 31005KT M08/M09 A2969 RMK AO1 SLP074
T10781094





000
SAUS41 KBOX 091255
MTRMQE
METAR KMQE 091254Z AUTO 31005KT M08/M09 A2969 RMK AO1 SLP074
T10781094





000
SAUS41 KBOX 091155
MTRMQE
METAR KMQE 091154Z AUTO 36010G17KT M08/M09 A2962 RMK AO1 SLP050
60001 70059 T10831094 11083 21083 58020





000
SAUS41 KBOX 091155
MTRMQE
METAR KMQE 091154Z AUTO 36010G17KT M08/M09 A2962 RMK AO1 SLP050
60001 70059 T10831094 11083 21083 58020





000
SAUS41 KBOX 091055
MTRMQE
METAR KMQE 091054Z AUTO 35010KT M08/M09 A2966 RMK AO1 PRESFR SLP065
T10831094





000
SAUS41 KBOX 090955
MTRMQE
METAR KMQE 090954Z AUTO 35009KT M08/M09 A2968 RMK AO1 SLP070
T10831094





000
SAUS41 KBOX 090855
MTRMQE
METAR KMQE 090854Z AUTO 35011KT M08/M09 A2968 RMK AO1 SLP070 60001
T10831094 58010





000
SAUS41 KBOX 090755
MTRMQE
METAR KMQE 090754Z AUTO 34008G17KT M08/M09 A2970 RMK AO1 SLP079
T10831094





000
SAUS41 KBOX 090655
MTRMQE
METAR KMQE 090654Z AUTO 34009KT M08/M09 A2970 RMK AO1 SLP080 P0001
T10831094





000
SAUS41 KBOX 090555
MTRMQE
METAR KMQE 090554Z AUTO 35009KT M08/M09 A2971 RMK AO1 SLP081 60013
T10831089 11083 21083 58007





000
SAUS41 KBOX 090455
MTRMQE
METAR KMQE 090454Z AUTO 35008KT M08/M09 A2973 RMK AO1 SLP088 P0002
T10831089 400171094





000
SAUS41 KBOX 090455
MTRMQE
METAR KMQE 090454Z AUTO 35008KT M08/M09 A2973 RMK AO1 SLP088 P0002
T10831089 400171094





000
SAUS41 KBOX 090355
MTRMQE
METAR KMQE 090354Z AUTO 35009G18KT M08/M09 A2973 RMK AO1 SLP090
P0002 T10831089





000
SAUS41 KBOX 090255
MTRMQE
METAR KMQE 090254Z AUTO 35012G20KT M08/M09 A2973 RMK AO1 SLP088
P0002 60009 T10831094 50006





000
SAUS41 KBOX 090155
MTRMQE
METAR KMQE 090154Z AUTO 35012G18KT M08/M09 A2973 RMK AO1 SLP088
P0003 T10831094





000
SAUS41 KBOX 090155
MTRMQE
METAR KMQE 090154Z AUTO 35012G18KT M08/M09 A2973 RMK AO1 SLP088
P0003 T10831094





000
SAUS41 KBOX 090055
MTRMQE
METAR KMQE 090054Z AUTO 35014G19KT M08/M09 A2972 RMK AO1 SLP085
P0004 T10831094





000
SAUS41 KBOX 090055
MTRMQE
METAR KMQE 090054Z AUTO 35014G19KT M08/M09 A2972 RMK AO1 SLP085
P0004 T10831094





000
SAUS41 KBOX 082355
MTRMQE
METAR KMQE 082354Z AUTO 35013G21KT M08/M09 A2971 RMK AO1 PK WND
35027/2329 SLP081 P0003 60017 T10831089 11078 21089 53020





000
SAUS41 KBOX 082355
MTRMQE
METAR KMQE 082354Z AUTO 35013G21KT M08/M09 A2971 RMK AO1 PK WND
35027/2329 SLP081 P0003 60017 T10831089 11078 21089 53020





000
SAUS41 KBOX 082255
MTRMQE
METAR KMQE 082254Z AUTO 35015G23KT M08/M09 A2969 RMK AO1 PK WND
35029/2232 SLP073 P0001 T10831094





000
SAUS41 KBOX 082255
MTRMQE
METAR KMQE 082254Z AUTO 35015G23KT M08/M09 A2969 RMK AO1 PK WND
35029/2232 SLP073 P0001 T10831094





000
SAUS41 KBOX 082155
MTRMQE
METAR KMQE 082154Z AUTO 36015G25KT M08/M10 A2967 RMK AO1 PK WND
36029/2138 SLP065 P0001 T10781100





000
SAUS41 KBOX 082055
MTRMQE
METAR KMQE 082054Z AUTO 35017G24KT M08/M09 A2965 RMK AO1 PK WND
35027/2000 SLP060 P0002 60012 T10831094 55007





000
SAUS41 KBOX 081955
MTRMQE
METAR KMQE 081954Z AUTO 36015G26KT M08/M10 A2964 RMK AO1 PK WND
36032/1856 SLP057 P0006 T10831100





    US Dept of Commerce
    National Oceanic and Atmospheric Administration
    National Weather Service
    1325 East West Highway
    Silver Spring, MD 20910
    Page Author: NWS Internet Services Team
Disclaimer
Information Quality
Credits
Glossary
Privacy Policy
Freedom of Information Act (FOIA)
About Us
Career Opportunities